sensor_id;sensor_type;location;lat;lon;timestamp;P1;durP1;ratioP1;P2;durP2;ratioP2
69779;SDS011;57052;55.602;38.096;2022-11-20T00:00:55;10.95;;;4.90;;
69779;SDS011;57052;55.602;38.096;2022-11-20T00:03:21;11.25;;;5.28;;
69779;SDS011;57052;55.602;38.096;2022-11-20T00:05:47;10.65;;;4.80;;
69779;SDS011;57052;55.602;38.096;2022-11-20T00:08:13;13.05;;;4.97;;
69779;SDS011;57052;55.602;38.096;2022-11-20T00:10:39;10.57;;;5.10;;
69779;SDS011;57052;55.602;38.096;2022-11-20T00:13:05;10.00;;;4.65;;
69779;SDS011;57052;55.602;38.096;2022-11-20T00:15:31;11.15;;;4.75;;
69779;SDS011;57052;55.602;38.096;2022-11-20T00:17:57;9.88;;;4.93;;
69779;SDS011;57052;55.602;38.096;2022-11-20T00:20:23;12.50;;;5.35;;
69779;SDS011;57052;55.602;38.096;2022-11-20T00:22:49;11.02;;;5.18;;
69779;SDS011;57052;55.602;38.096;2022-11-20T00:25:15;10.75;;;4.97;;
69779;SDS011;57052;55.602;38.096;2022-11-20T00:27:41;9.88;;;4.63;;
69779;SDS011;57052;55.602;38.096;2022-11-20T00:30:06;9.93;;;4.75;;
69779;SDS011;57052;55.602;38.096;2022-11-20T00:32:32;11.45;;;5.18;;
69779;SDS011;57052;55.602;38.096;2022-11-20T00:34:58;10.23;;;4.20;;
69779;SDS011;57052;55.602;38.096;2022-11-20T00:37:23;8.68;;;4.45;;
69779;SDS011;57052;55.602;38.096;2022-11-20T00:39:49;10.27;;;4.97;;
69779;SDS011;57052;55.602;38.096;2022-11-20T00:42:14;10.45;;;4.85;;
69779;SDS011;57052;55.602;38.096;2022-11-20T00:44:40;10.77;;;5.32;;
69779;SDS011;57052;55.602;38.096;2022-11-20T00:47:05;10.32;;;4.93;;
69779;SDS011;57052;55.602;38.096;2022-11-20T00:49:31;11.02;;;5.32;;
69779;SDS011;57052;55.602;38.096;2022-11-20T00:51:57;12.55;;;5.60;;
69779;SDS011;57052;55.602;38.096;2022-11-20T00:54:22;10.38;;;5.05;;
69779;SDS011;57052;55.602;38.096;2022-11-20T00:56:48;11.65;;;5.40;;
69779;SDS011;57052;55.602;38.096;2022-11-20T00:59:13;12.57;;;5.30;;
69779;SDS011;57052;55.602;38.096;2022-11-20T01:01:39;13.35;;;5.53;;
69779;SDS011;57052;55.602;38.096;2022-11-20T01:04:04;12.32;;;6.05;;
69779;SDS011;57052;55.602;38.096;2022-11-20T01:06:31;12.95;;;6.53;;
69779;SDS011;57052;55.602;38.096;2022-11-20T01:08:59;13.18;;;6.97;;
69779;SDS011;57052;55.602;38.096;2022-11-20T01:11:28;13.45;;;7.05;;
69779;SDS011;57052;55.602;38.096;2022-11-20T01:13:55;14.40;;;6.95;;
69779;SDS011;57052;55.602;38.096;2022-11-20T01:16:29;11.57;;;6.18;;
69779;SDS011;57052;55.602;38.096;2022-11-20T01:18:58;16.33;;;7.18;;
69779;SDS011;57052;55.602;38.096;2022-11-20T01:21:26;14.52;;;7.10;;
69779;SDS011;57052;55.602;38.096;2022-11-20T01:23:53;13.43;;;6.50;;
69779;SDS011;57052;55.602;38.096;2022-11-20T01:26:20;14.60;;;6.60;;
69779;SDS011;57052;55.602;38.096;2022-11-20T01:28:48;15.10;;;7.15;;
69779;SDS011;57052;55.602;38.096;2022-11-20T01:31:16;14.48;;;6.93;;
69779;SDS011;57052;55.602;38.096;2022-11-20T01:33:50;12.35;;;6.03;;
69779;SDS011;57052;55.602;38.096;2022-11-20T01:36:18;14.00;;;6.28;;
69779;SDS011;57052;55.602;38.096;2022-11-20T01:38:45;10.38;;;5.20;;
69779;SDS011;57052;55.602;38.096;2022-11-20T01:41:11;12.30;;;5.03;;
69779;SDS011;57052;55.602;38.096;2022-11-20T01:44:01;11.50;;;5.18;;
69779;SDS011;57052;55.602;38.096;2022-11-20T01:46:27;12.27;;;5.40;;
69779;SDS011;57052;55.602;38.096;2022-11-20T01:48:57;13.73;;;5.50;;
69779;SDS011;57052;55.602;38.096;2022-11-20T01:54:26;13.15;;;6.20;;
69779;SDS011;57052;55.602;38.096;2022-11-20T01:56:59;13.50;;;5.72;;
69779;SDS011;57052;55.602;38.096;2022-11-20T01:59:26;13.52;;;5.88;;
69779;SDS011;57052;55.602;38.096;2022-11-20T02:01:54;11.98;;;5.20;;
69779;SDS011;57052;55.602;38.096;2022-11-20T02:04:20;11.13;;;5.45;;
69779;SDS011;57052;55.602;38.096;2022-11-20T02:06:50;10.07;;;4.72;;
69779;SDS011;57052;55.602;38.096;2022-11-20T02:09:27;9.48;;;5.00;;
69779;SDS011;57052;55.602;38.096;2022-11-20T02:11:53;11.75;;;5.40;;
69779;SDS011;57052;55.602;38.096;2022-11-20T02:14:20;12.10;;;5.30;;
69779;SDS011;57052;55.602;38.096;2022-11-20T02:16:47;10.00;;;5.30;;
69779;SDS011;57052;55.602;38.096;2022-11-20T02:22:14;12.05;;;5.85;;
69779;SDS011;57052;55.602;38.096;2022-11-20T02:24:50;10.75;;;5.07;;
69779;SDS011;57052;55.602;38.096;2022-11-20T02:27:16;10.77;;;5.35;;
69779;SDS011;57052;55.602;38.096;2022-11-20T02:30:02;11.65;;;5.50;;
69779;SDS011;57052;55.602;38.096;2022-11-20T02:32:35;10.75;;;5.13;;
69779;SDS011;57052;55.602;38.096;2022-11-20T02:37:43;11.27;;;5.38;;
69779;SDS011;57052;55.602;38.096;2022-11-20T02:40:09;13.45;;;5.15;;
69779;SDS011;57052;55.602;38.096;2022-11-20T02:42:36;10.18;;;5.07;;
69779;SDS011;57052;55.602;38.096;2022-11-20T02:45:02;11.73;;;5.50;;
69779;SDS011;57052;55.602;38.096;2022-11-20T02:47:29;10.50;;;5.07;;
69779;SDS011;57052;55.602;38.096;2022-11-20T02:49:55;11.77;;;5.22;;
69779;SDS011;57052;55.602;38.096;2022-11-20T02:52:21;11.00;;;5.00;;
69779;SDS011;57052;55.602;38.096;2022-11-20T02:54:46;11.38;;;4.85;;
69779;SDS011;57052;55.602;38.096;2022-11-20T02:57:12;10.43;;;5.20;;
69779;SDS011;57052;55.602;38.096;2022-11-20T02:59:38;9.55;;;4.75;;
69779;SDS011;57052;55.602;38.096;2022-11-20T03:02:03;9.45;;;4.72;;
69779;SDS011;57052;55.602;38.096;2022-11-20T03:04:30;10.48;;;4.93;;
69779;SDS011;57052;55.602;38.096;2022-11-20T03:06:55;10.20;;;4.78;;
69779;SDS011;57052;55.602;38.096;2022-11-20T03:09:21;8.20;;;4.20;;
69779;SDS011;57052;55.602;38.096;2022-11-20T03:11:47;10.50;;;4.90;;
69779;SDS011;57052;55.602;38.096;2022-11-20T03:14:12;10.30;;;4.38;;
69779;SDS011;57052;55.602;38.096;2022-11-20T03:16:38;11.30;;;4.63;;
69779;SDS011;57052;55.602;38.096;2022-11-20T03:19:03;9.75;;;4.00;;
69779;SDS011;57052;55.602;38.096;2022-11-20T03:21:29;9.55;;;4.40;;
69779;SDS011;57052;55.602;38.096;2022-11-20T03:23:55;11.10;;;4.47;;
69779;SDS011;57052;55.602;38.096;2022-11-20T03:26:21;9.05;;;4.53;;
69779;SDS011;57052;55.602;38.096;2022-11-20T03:28:50;10.30;;;4.50;;
69779;SDS011;57052;55.602;38.096;2022-11-20T03:31:18;9.20;;;3.88;;
69779;SDS011;57052;55.602;38.096;2022-11-20T03:33:45;8.55;;;4.07;;
69779;SDS011;57052;55.602;38.096;2022-11-20T03:36:12;9.57;;;4.90;;
69779;SDS011;57052;55.602;38.096;2022-11-20T03:38:39;8.80;;;3.85;;
69779;SDS011;57052;55.602;38.096;2022-11-20T03:41:06;9.68;;;4.40;;
69779;SDS011;57052;55.602;38.096;2022-11-20T03:43:33;8.75;;;4.15;;
69779;SDS011;57052;55.602;38.096;2022-11-20T03:46:00;10.02;;;3.97;;
69779;SDS011;57052;55.602;38.096;2022-11-20T03:48:26;9.88;;;4.55;;
69779;SDS011;57052;55.602;38.096;2022-11-20T03:50:52;9.52;;;3.92;;
69779;SDS011;57052;55.602;38.096;2022-11-20T03:53:31;12.82;;;4.60;;
69779;SDS011;57052;55.602;38.096;2022-11-20T03:55:56;11.02;;;4.25;;
69779;SDS011;57052;55.602;38.096;2022-11-20T03:58:22;10.27;;;4.32;;
69779;SDS011;57052;55.602;38.096;2022-11-20T04:00:47;9.85;;;3.95;;
69779;SDS011;57052;55.602;38.096;2022-11-20T04:03:13;8.25;;;3.75;;
69779;SDS011;57052;55.602;38.096;2022-11-20T04:05:38;8.52;;;4.05;;
69779;SDS011;57052;55.602;38.096;2022-11-20T04:08:04;9.27;;;4.20;;
69779;SDS011;57052;55.602;38.096;2022-11-20T04:10:29;8.07;;;3.78;;
69779;SDS011;57052;55.602;38.096;2022-11-20T04:12:55;9.32;;;4.30;;
69779;SDS011;57052;55.602;38.096;2022-11-20T04:15:21;8.25;;;4.10;;
69779;SDS011;57052;55.602;38.096;2022-11-20T04:17:46;9.52;;;4.15;;
69779;SDS011;57052;55.602;38.096;2022-11-20T04:20:12;9.57;;;4.07;;
69779;SDS011;57052;55.602;38.096;2022-11-20T04:22:37;9.25;;;4.30;;
69779;SDS011;57052;55.602;38.096;2022-11-20T04:25:03;10.63;;;4.28;;
69779;SDS011;57052;55.602;38.096;2022-11-20T04:27:30;10.10;;;4.07;;
69779;SDS011;57052;55.602;38.096;2022-11-20T04:29:56;9.60;;;4.03;;
69779;SDS011;57052;55.602;38.096;2022-11-20T04:32:21;9.05;;;4.13;;
69779;SDS011;57052;55.602;38.096;2022-11-20T04:34:47;8.45;;;4.15;;
69779;SDS011;57052;55.602;38.096;2022-11-20T04:37:12;8.95;;;4.50;;
69779;SDS011;57052;55.602;38.096;2022-11-20T04:39:38;9.50;;;4.70;;
69779;SDS011;57052;55.602;38.096;2022-11-20T04:42:03;8.93;;;3.78;;
69779;SDS011;57052;55.602;38.096;2022-11-20T04:44:47;9.93;;;4.47;;
69779;SDS011;57052;55.602;38.096;2022-11-20T04:47:13;8.63;;;3.97;;
69779;SDS011;57052;55.602;38.096;2022-11-20T04:49:39;10.85;;;3.83;;
69779;SDS011;57052;55.602;38.096;2022-11-20T04:52:05;6.55;;;3.42;;
69779;SDS011;57052;55.602;38.096;2022-11-20T04:54:30;10.52;;;4.22;;
69779;SDS011;57052;55.602;38.096;2022-11-20T04:56:56;10.13;;;4.22;;
69779;SDS011;57052;55.602;38.096;2022-11-20T04:59:21;9.95;;;4.07;;
69779;SDS011;57052;55.602;38.096;2022-11-20T05:01:47;8.30;;;3.83;;
69779;SDS011;57052;55.602;38.096;2022-11-20T05:04:13;10.25;;;4.10;;
69779;SDS011;57052;55.602;38.096;2022-11-20T05:06:38;8.77;;;4.25;;
69779;SDS011;57052;55.602;38.096;2022-11-20T05:09:04;9.20;;;4.32;;
69779;SDS011;57052;55.602;38.096;2022-11-20T05:11:31;7.22;;;3.70;;
69779;SDS011;57052;55.602;38.096;2022-11-20T05:13:58;11.15;;;4.10;;
69779;SDS011;57052;55.602;38.096;2022-11-20T05:16:24;10.30;;;3.65;;
69779;SDS011;57052;55.602;38.096;2022-11-20T05:18:51;9.32;;;4.25;;
69779;SDS011;57052;55.602;38.096;2022-11-20T05:21:19;11.27;;;4.30;;
69779;SDS011;57052;55.602;38.096;2022-11-20T05:23:45;10.60;;;3.92;;
69779;SDS011;57052;55.602;38.096;2022-11-20T05:26:15;10.00;;;3.72;;
69779;SDS011;57052;55.602;38.096;2022-11-20T05:28:43;9.57;;;4.22;;
69779;SDS011;57052;55.602;38.096;2022-11-20T05:31:09;9.75;;;4.45;;
69779;SDS011;57052;55.602;38.096;2022-11-20T05:33:38;10.23;;;4.45;;
69779;SDS011;57052;55.602;38.096;2022-11-20T05:36:05;9.00;;;4.47;;
69779;SDS011;57052;55.602;38.096;2022-11-20T05:38:31;9.68;;;3.75;;
69779;SDS011;57052;55.602;38.096;2022-11-20T05:41:04;11.55;;;4.47;;
69779;SDS011;57052;55.602;38.096;2022-11-20T05:43:38;8.27;;;3.55;;
69779;SDS011;57052;55.602;38.096;2022-11-20T05:46:05;11.60;;;4.25;;
69779;SDS011;57052;55.602;38.096;2022-11-20T05:48:32;10.65;;;4.18;;
69779;SDS011;57052;55.602;38.096;2022-11-20T05:50:59;9.00;;;4.53;;
69779;SDS011;57052;55.602;38.096;2022-11-20T05:53:27;9.23;;;3.92;;
69779;SDS011;57052;55.602;38.096;2022-11-20T05:55:59;11.55;;;4.53;;
69779;SDS011;57052;55.602;38.096;2022-11-20T05:58:33;9.52;;;4.70;;
69779;SDS011;57052;55.602;38.096;2022-11-20T06:01:15;9.52;;;4.35;;
69779;SDS011;57052;55.602;38.096;2022-11-20T06:03:46;8.95;;;4.40;;
69779;SDS011;57052;55.602;38.096;2022-11-20T06:06:13;11.05;;;4.72;;
69779;SDS011;57052;55.602;38.096;2022-11-20T06:08:40;10.85;;;4.15;;
69779;SDS011;57052;55.602;38.096;2022-11-20T06:11:07;10.70;;;4.00;;
69779;SDS011;57052;55.602;38.096;2022-11-20T06:13:33;9.65;;;4.50;;
69779;SDS011;57052;55.602;38.096;2022-11-20T06:15:59;8.93;;;4.18;;
69779;SDS011;57052;55.602;38.096;2022-11-20T06:18:26;9.27;;;4.43;;
69779;SDS011;57052;55.602;38.096;2022-11-20T06:20:59;9.73;;;4.15;;
69779;SDS011;57052;55.602;38.096;2022-11-20T06:23:30;9.88;;;4.22;;
69779;SDS011;57052;55.602;38.096;2022-11-20T06:25:57;9.52;;;4.32;;
69779;SDS011;57052;55.602;38.096;2022-11-20T06:28:25;10.48;;;4.15;;
69779;SDS011;57052;55.602;38.096;2022-11-20T06:30:51;11.93;;;4.65;;
69779;SDS011;57052;55.602;38.096;2022-11-20T06:33:16;11.95;;;5.05;;
69779;SDS011;57052;55.602;38.096;2022-11-20T06:35:42;10.70;;;4.70;;
69779;SDS011;57052;55.602;38.096;2022-11-20T06:38:07;10.10;;;4.45;;
69779;SDS011;57052;55.602;38.096;2022-11-20T06:40:33;8.27;;;4.20;;
69779;SDS011;57052;55.602;38.096;2022-11-20T06:42:58;9.40;;;4.53;;
69779;SDS011;57052;55.602;38.096;2022-11-20T06:45:24;9.90;;;4.47;;
69779;SDS011;57052;55.602;38.096;2022-11-20T06:47:49;10.52;;;4.70;;
69779;SDS011;57052;55.602;38.096;2022-11-20T06:50:15;11.10;;;4.78;;
69779;SDS011;57052;55.602;38.096;2022-11-20T06:52:40;12.90;;;5.13;;
69779;SDS011;57052;55.602;38.096;2022-11-20T06:55:06;10.32;;;4.97;;
69779;SDS011;57052;55.602;38.096;2022-11-20T06:57:32;11.88;;;4.90;;
69779;SDS011;57052;55.602;38.096;2022-11-20T06:59:58;11.32;;;4.47;;
69779;SDS011;57052;55.602;38.096;2022-11-20T07:02:26;9.38;;;4.38;;
69779;SDS011;57052;55.602;38.096;2022-11-20T07:04:51;9.18;;;4.15;;
69779;SDS011;57052;55.602;38.096;2022-11-20T07:07:17;10.98;;;4.30;;
69779;SDS011;57052;55.602;38.096;2022-11-20T07:09:42;12.35;;;4.25;;
69779;SDS011;57052;55.602;38.096;2022-11-20T07:12:08;13.60;;;4.82;;
69779;SDS011;57052;55.602;38.096;2022-11-20T07:14:34;13.10;;;4.90;;
69779;SDS011;57052;55.602;38.096;2022-11-20T07:16:59;11.27;;;4.80;;
69779;SDS011;57052;55.602;38.096;2022-11-20T07:19:25;10.68;;;5.00;;
69779;SDS011;57052;55.602;38.096;2022-11-20T07:21:50;13.23;;;4.72;;
69779;SDS011;57052;55.602;38.096;2022-11-20T07:24:16;11.15;;;5.03;;
69779;SDS011;57052;55.602;38.096;2022-11-20T07:26:42;10.30;;;4.72;;
69779;SDS011;57052;55.602;38.096;2022-11-20T07:29:08;12.75;;;4.88;;
69779;SDS011;57052;55.602;38.096;2022-11-20T07:31:34;12.35;;;4.85;;
69779;SDS011;57052;55.602;38.096;2022-11-20T07:33:59;13.57;;;5.65;;
69779;SDS011;57052;55.602;38.096;2022-11-20T07:36:25;10.38;;;4.68;;
69779;SDS011;57052;55.602;38.096;2022-11-20T07:38:51;10.82;;;4.80;;
69779;SDS011;57052;55.602;38.096;2022-11-20T07:41:16;10.25;;;4.95;;
69779;SDS011;57052;55.602;38.096;2022-11-20T07:43:42;14.80;;;5.50;;
69779;SDS011;57052;55.602;38.096;2022-11-20T07:46:07;10.50;;;4.68;;
69779;SDS011;57052;55.602;38.096;2022-11-20T07:48:33;11.70;;;5.07;;
69779;SDS011;57052;55.602;38.096;2022-11-20T07:50:58;11.13;;;5.20;;
69779;SDS011;57052;55.602;38.096;2022-11-20T07:53:24;10.13;;;5.13;;
69779;SDS011;57052;55.602;38.096;2022-11-20T07:55:50;12.75;;;4.68;;
69779;SDS011;57052;55.602;38.096;2022-11-20T07:58:17;9.60;;;4.75;;
69779;SDS011;57052;55.602;38.096;2022-11-20T08:00:46;13.02;;;5.60;;
69779;SDS011;57052;55.602;38.096;2022-11-20T08:03:12;14.32;;;5.78;;
69779;SDS011;57052;55.602;38.096;2022-11-20T08:05:38;11.50;;;4.93;;
69779;SDS011;57052;55.602;38.096;2022-11-20T08:08:03;13.88;;;5.38;;
69779;SDS011;57052;55.602;38.096;2022-11-20T08:10:29;11.15;;;4.90;;
69779;SDS011;57052;55.602;38.096;2022-11-20T08:12:54;10.20;;;5.07;;
69779;SDS011;57052;55.602;38.096;2022-11-20T08:15:39;10.93;;;4.88;;
69779;SDS011;57052;55.602;38.096;2022-11-20T08:18:06;12.32;;;4.95;;
69779;SDS011;57052;55.602;38.096;2022-11-20T08:20:34;13.00;;;5.40;;
69779;SDS011;57052;55.602;38.096;2022-11-20T08:23:00;15.60;;;5.22;;
69779;SDS011;57052;55.602;38.096;2022-11-20T08:25:28;13.18;;;5.47;;
69779;SDS011;57052;55.602;38.096;2022-11-20T08:28:07;12.73;;;5.22;;
69779;SDS011;57052;55.602;38.096;2022-11-20T08:30:34;11.95;;;4.60;;
69779;SDS011;57052;55.602;38.096;2022-11-20T08:33:01;11.90;;;5.35;;
69779;SDS011;57052;55.602;38.096;2022-11-20T08:35:32;11.20;;;5.53;;
69779;SDS011;57052;55.602;38.096;2022-11-20T08:37:58;12.82;;;6.07;;
69779;SDS011;57052;55.602;38.096;2022-11-20T08:40:24;12.30;;;5.20;;
69779;SDS011;57052;55.602;38.096;2022-11-20T08:42:50;13.35;;;5.28;;
69779;SDS011;57052;55.602;38.096;2022-11-20T08:45:16;11.40;;;4.68;;
69779;SDS011;57052;55.602;38.096;2022-11-20T08:47:44;9.88;;;4.60;;
69779;SDS011;57052;55.602;38.096;2022-11-20T08:50:10;11.05;;;5.35;;
69779;SDS011;57052;55.602;38.096;2022-11-20T08:52:37;11.63;;;5.10;;
69779;SDS011;57052;55.602;38.096;2022-11-20T08:55:06;11.18;;;4.90;;
69779;SDS011;57052;55.602;38.096;2022-11-20T08:57:33;11.77;;;4.95;;
69779;SDS011;57052;55.602;38.096;2022-11-20T09:00:03;12.32;;;5.03;;
69779;SDS011;57052;55.602;38.096;2022-11-20T09:02:36;12.45;;;4.97;;
69779;SDS011;57052;55.602;38.096;2022-11-20T09:05:03;12.55;;;5.20;;
69779;SDS011;57052;55.602;38.096;2022-11-20T09:07:29;11.77;;;5.18;;
69779;SDS011;57052;55.602;38.096;2022-11-20T09:09:55;11.27;;;5.00;;
69779;SDS011;57052;55.602;38.096;2022-11-20T09:12:21;12.70;;;5.68;;
69779;SDS011;57052;55.602;38.096;2022-11-20T09:14:47;10.85;;;5.68;;
69779;SDS011;57052;55.602;38.096;2022-11-20T09:17:14;12.75;;;5.18;;
69779;SDS011;57052;55.602;38.096;2022-11-20T09:19:40;14.02;;;5.30;;
69779;SDS011;57052;55.602;38.096;2022-11-20T09:22:06;11.95;;;5.22;;
69779;SDS011;57052;55.602;38.096;2022-11-20T09:24:32;11.13;;;4.75;;
69779;SDS011;57052;55.602;38.096;2022-11-20T09:26:57;11.82;;;4.78;;
69779;SDS011;57052;55.602;38.096;2022-11-20T09:29:23;13.73;;;5.25;;
69779;SDS011;57052;55.602;38.096;2022-11-20T09:31:49;13.35;;;5.38;;
69779;SDS011;57052;55.602;38.096;2022-11-20T09:34:14;14.57;;;5.32;;
69779;SDS011;57052;55.602;38.096;2022-11-20T09:36:40;15.40;;;6.57;;
69779;SDS011;57052;55.602;38.096;2022-11-20T09:39:06;13.05;;;6.07;;
69779;SDS011;57052;55.602;38.096;2022-11-20T09:47:24;15.63;;;6.80;;
69779;SDS011;57052;55.602;38.096;2022-11-20T09:55:38;18.48;;;7.68;;
69779;SDS011;57052;55.602;38.096;2022-11-20T09:58:12;19.60;;;7.88;;
69779;SDS011;57052;55.602;38.096;2022-11-20T10:00:44;19.65;;;7.85;;
69779;SDS011;57052;55.602;38.096;2022-11-20T10:03:24;17.92;;;7.80;;
69779;SDS011;57052;55.602;38.096;2022-11-20T10:06:02;15.73;;;7.32;;
69779;SDS011;57052;55.602;38.096;2022-11-20T10:08:37;14.95;;;7.55;;
69779;SDS011;57052;55.602;38.096;2022-11-20T10:14:11;17.35;;;7.00;;
69779;SDS011;57052;55.602;38.096;2022-11-20T10:25:38;17.05;;;6.50;;
69779;SDS011;57052;55.602;38.096;2022-11-20T10:30:57;15.40;;;7.88;;
69779;SDS011;57052;55.602;38.096;2022-11-20T10:33:26;17.98;;;6.60;;
69779;SDS011;57052;55.602;38.096;2022-11-20T10:36:15;17.42;;;7.47;;
69779;SDS011;57052;55.602;38.096;2022-11-20T10:38:50;16.23;;;6.32;;
69779;SDS011;57052;55.602;38.096;2022-11-20T10:41:21;17.48;;;7.07;;
69779;SDS011;57052;55.602;38.096;2022-11-20T10:44:02;17.42;;;8.10;;
69779;SDS011;57052;55.602;38.096;2022-11-20T10:46:36;18.42;;;7.80;;
69779;SDS011;57052;55.602;38.096;2022-11-20T10:49:21;17.40;;;8.00;;
69779;SDS011;57052;55.602;38.096;2022-11-20T10:52:03;17.05;;;7.68;;
69779;SDS011;57052;55.602;38.096;2022-11-20T10:54:39;16.25;;;7.25;;
69779;SDS011;57052;55.602;38.096;2022-11-20T11:02:33;20.73;;;8.85;;
69779;SDS011;57052;55.602;38.096;2022-11-20T11:05:22;21.47;;;8.47;;
69779;SDS011;57052;55.602;38.096;2022-11-20T11:07:57;22.95;;;8.45;;
69779;SDS011;57052;55.602;38.096;2022-11-20T11:13:01;21.45;;;9.25;;
69779;SDS011;57052;55.602;38.096;2022-11-20T11:18:02;21.33;;;8.80;;
69779;SDS011;57052;55.602;38.096;2022-11-20T11:20:28;21.58;;;8.45;;
69779;SDS011;57052;55.602;38.096;2022-11-20T11:22:57;23.13;;;9.75;;
69779;SDS011;57052;55.602;38.096;2022-11-20T11:28:02;20.88;;;8.50;;
69779;SDS011;57052;55.602;38.096;2022-11-20T11:30:30;26.67;;;9.25;;
69779;SDS011;57052;55.602;38.096;2022-11-20T11:33:09;25.27;;;8.98;;
69779;SDS011;57052;55.602;38.096;2022-11-20T11:35:53;27.05;;;9.63;;
69779;SDS011;57052;55.602;38.096;2022-11-20T11:38:37;21.77;;;9.35;;
69779;SDS011;57052;55.602;38.096;2022-11-20T11:41:05;27.80;;;9.75;;
69779;SDS011;57052;55.602;38.096;2022-11-20T11:43:35;22.60;;;9.60;;
69779;SDS011;57052;55.602;38.096;2022-11-20T11:54:15;29.85;;;12.95;;
69779;SDS011;57052;55.602;38.096;2022-11-20T11:56:45;30.70;;;12.73;;
69779;SDS011;57052;55.602;38.096;2022-11-20T11:59:12;29.48;;;12.73;;
69779;SDS011;57052;55.602;38.096;2022-11-20T12:02:02;30.15;;;11.93;;
69779;SDS011;57052;55.602;38.096;2022-11-20T12:07:15;28.35;;;10.88;;
69779;SDS011;57052;55.602;38.096;2022-11-20T12:09:52;29.45;;;11.02;;
69779;SDS011;57052;55.602;38.096;2022-11-20T12:12:20;30.40;;;11.10;;
69779;SDS011;57052;55.602;38.096;2022-11-20T12:14:54;31.70;;;11.80;;
69779;SDS011;57052;55.602;38.096;2022-11-20T12:17:21;22.08;;;10.23;;
69779;SDS011;57052;55.602;38.096;2022-11-20T12:19:47;24.83;;;10.57;;
69779;SDS011;57052;55.602;38.096;2022-11-20T12:30:10;30.38;;;10.93;;
69779;SDS011;57052;55.602;38.096;2022-11-20T12:44:07;28.35;;;10.80;;
69779;SDS011;57052;55.602;38.096;2022-11-20T12:47:19;33.70;;;11.25;;
69779;SDS011;57052;55.602;38.096;2022-11-20T12:52:58;32.75;;;12.35;;
69779;SDS011;57052;55.602;38.096;2022-11-20T12:56:05;32.97;;;11.02;;
69779;SDS011;57052;55.602;38.096;2022-11-20T13:04:15;28.30;;;10.75;;
69779;SDS011;57052;55.602;38.096;2022-11-20T13:07:01;28.35;;;9.60;;
69779;SDS011;57052;55.602;38.096;2022-11-20T13:09:29;27.15;;;9.60;;
69779;SDS011;57052;55.602;38.096;2022-11-20T13:17:40;29.95;;;10.38;;
69779;SDS011;57052;55.602;38.096;2022-11-20T13:20:14;29.10;;;9.55;;
69779;SDS011;57052;55.602;38.096;2022-11-20T13:30:31;29.90;;;9.98;;
69779;SDS011;57052;55.602;38.096;2022-11-20T13:32:57;29.20;;;10.15;;
69779;SDS011;57052;55.602;38.096;2022-11-20T13:35:31;30.70;;;10.80;;
69779;SDS011;57052;55.602;38.096;2022-11-20T13:43:22;32.05;;;10.55;;
69779;SDS011;57052;55.602;38.096;2022-11-20T13:46:03;28.70;;;10.10;;
69779;SDS011;57052;55.602;38.096;2022-11-20T13:48:40;32.13;;;10.77;;
69779;SDS011;57052;55.602;38.096;2022-11-20T13:53:52;35.55;;;10.27;;
69779;SDS011;57052;55.602;38.096;2022-11-20T14:01:48;33.20;;;10.25;;
69779;SDS011;57052;55.602;38.096;2022-11-20T14:04:15;33.35;;;10.75;;
69779;SDS011;57052;55.602;38.096;2022-11-20T14:06:45;36.70;;;10.70;;
69779;SDS011;57052;55.602;38.096;2022-11-20T14:09:24;31.52;;;10.60;;
69779;SDS011;57052;55.602;38.096;2022-11-20T14:11:54;34.08;;;11.02;;
69779;SDS011;57052;55.602;38.096;2022-11-20T14:14:24;35.33;;;12.18;;
69779;SDS011;57052;55.602;38.096;2022-11-20T14:16:52;31.55;;;10.13;;
69779;SDS011;57052;55.602;38.096;2022-11-20T14:19:29;34.58;;;11.27;;
69779;SDS011;57052;55.602;38.096;2022-11-20T14:24:48;29.42;;;10.90;;
69779;SDS011;57052;55.602;38.096;2022-11-20T14:27:18;30.17;;;11.10;;
69779;SDS011;57052;55.602;38.096;2022-11-20T14:29:46;35.92;;;11.30;;
69779;SDS011;57052;55.602;38.096;2022-11-20T14:32:15;35.50;;;11.05;;
69779;SDS011;57052;55.602;38.096;2022-11-20T14:34:43;40.20;;;12.13;;
69779;SDS011;57052;55.602;38.096;2022-11-20T14:37:11;37.13;;;13.27;;
69779;SDS011;57052;55.602;38.096;2022-11-20T14:42:15;50.22;;;14.95;;
69779;SDS011;57052;55.602;38.096;2022-11-20T14:44:45;44.85;;;14.68;;
69779;SDS011;57052;55.602;38.096;2022-11-20T14:47:15;42.60;;;13.73;;
69779;SDS011;57052;55.602;38.096;2022-11-20T14:49:45;40.95;;;12.20;;
69779;SDS011;57052;55.602;38.096;2022-11-20T14:52:19;32.17;;;11.02;;
69779;SDS011;57052;55.602;38.096;2022-11-20T14:54:46;39.53;;;13.05;;
69779;SDS011;57052;55.602;38.096;2022-11-20T14:57:21;39.55;;;12.07;;
69779;SDS011;57052;55.602;38.096;2022-11-20T15:00:03;37.13;;;12.70;;
69779;SDS011;57052;55.602;38.096;2022-11-20T15:02:41;37.97;;;11.20;;
69779;SDS011;57052;55.602;38.096;2022-11-20T15:05:07;39.35;;;11.40;;
69779;SDS011;57052;55.602;38.096;2022-11-20T15:07:34;35.38;;;11.63;;
69779;SDS011;57052;55.602;38.096;2022-11-20T15:10:06;39.15;;;11.93;;
69779;SDS011;57052;55.602;38.096;2022-11-20T15:12:34;35.40;;;11.73;;
69779;SDS011;57052;55.602;38.096;2022-11-20T15:15:03;35.67;;;11.30;;
69779;SDS011;57052;55.602;38.096;2022-11-20T15:17:30;33.63;;;10.95;;
69779;SDS011;57052;55.602;38.096;2022-11-20T15:19:57;39.78;;;12.45;;
69779;SDS011;57052;55.602;38.096;2022-11-20T15:22:25;34.25;;;12.10;;
69779;SDS011;57052;55.602;38.096;2022-11-20T15:24:50;37.67;;;11.52;;
69779;SDS011;57052;55.602;38.096;2022-11-20T15:27:16;33.60;;;11.60;;
69779;SDS011;57052;55.602;38.096;2022-11-20T15:29:41;39.90;;;12.02;;
69779;SDS011;57052;55.602;38.096;2022-11-20T15:32:08;42.72;;;12.30;;
69779;SDS011;57052;55.602;38.096;2022-11-20T15:34:34;38.30;;;12.20;;
69779;SDS011;57052;55.602;38.096;2022-11-20T15:36:59;32.97;;;12.35;;
69779;SDS011;57052;55.602;38.096;2022-11-20T15:39:25;37.50;;;13.18;;
69779;SDS011;57052;55.602;38.096;2022-11-20T15:41:52;46.33;;;13.85;;
69779;SDS011;57052;55.602;38.096;2022-11-20T15:44:17;36.80;;;12.13;;
69779;SDS011;57052;55.602;38.096;2022-11-20T15:46:43;37.00;;;12.35;;
69779;SDS011;57052;55.602;38.096;2022-11-20T15:49:15;36.75;;;13.02;;
69779;SDS011;57052;55.602;38.096;2022-11-20T15:51:44;41.73;;;12.73;;
69779;SDS011;57052;55.602;38.096;2022-11-20T15:54:16;37.80;;;12.32;;
69779;SDS011;57052;55.602;38.096;2022-11-20T15:56:45;39.60;;;12.65;;
69779;SDS011;57052;55.602;38.096;2022-11-20T15:59:12;37.58;;;13.07;;
69779;SDS011;57052;55.602;38.096;2022-11-20T16:01:39;44.75;;;13.57;;
69779;SDS011;57052;55.602;38.096;2022-11-20T16:04:09;39.00;;;13.52;;
69779;SDS011;57052;55.602;38.096;2022-11-20T16:06:36;44.05;;;12.43;;
69779;SDS011;57052;55.602;38.096;2022-11-20T16:09:01;45.15;;;13.75;;
69779;SDS011;57052;55.602;38.096;2022-11-20T16:11:27;41.88;;;13.77;;
69779;SDS011;57052;55.602;38.096;2022-11-20T16:13:52;34.08;;;12.82;;
69779;SDS011;57052;55.602;38.096;2022-11-20T16:16:37;41.38;;;13.70;;
69779;SDS011;57052;55.602;38.096;2022-11-20T16:19:05;44.20;;;13.75;;
69779;SDS011;57052;55.602;38.096;2022-11-20T16:21:31;45.95;;;13.55;;
69779;SDS011;57052;55.602;38.096;2022-11-20T16:24:00;41.03;;;14.10;;
69779;SDS011;57052;55.602;38.096;2022-11-20T16:26:27;37.42;;;13.05;;
69779;SDS011;57052;55.602;38.096;2022-11-20T16:28:53;39.90;;;13.75;;